Time;durP1;ratioP1;P1;durP2;ratioP2;P2;SDS_P1;SDS_P2;PMS_P1;PMS_P2;Temp;Humidity;BMP_temperature;BMP_pressure;BME280_temperature;BME280_humidity;BME280_pressure;Samples;Min_cycle;Max_cycle;Signal;HPM_P1;HPM_P2
2022/10/16 00:11:42;;;;;;;11.82;6.53;;;;;;;-147.20;100.00;63046.97;31430052;28;20033;-67
2022/10/16 00:26:42;;;;;;;8.48;5.47;;;;;;;-147.20;100.00;63046.97;31324740;28;20040;-64
2022/10/16 00:41:43;;;;;;;7.38;5.35;;;;;;;-147.20;100.00;63046.97;31303631;28;20112;-68
2022/10/16 00:56:45;;;;;;;6.85;5.47;;;;;;;-147.20;100.00;63046.97;31302822;28;20258;-65
2022/10/16 01:12:14;;;;;;;8.10;5.45;;;;;;;-147.20;100.00;63046.97;31301520;28;20057;-65
2022/10/16 01:27:14;;;;;;;10.00;5.03;;;;;;;-147.20;100.00;63046.97;31300495;28;20076;-68
2022/10/16 01:42:23;;;;;;;8.05;4.82;;;;;;;-147.20;100.00;63046.97;31320643;28;20041;-66
2022/10/16 01:57:25;;;;;;;7.45;5.50;;;;;;;-147.20;100.00;63046.97;31319203;28;20120;-66
2022/10/16 02:12:31;;;;;;;7.28;5.13;;;;;;;-147.20;100.00;63046.97;31317488;28;20041;-71
2022/10/16 02:27:52;;;;;;;9.98;6.00;;;;;;;-147.20;100.00;63046.97;31316496;28;20038;-69
2022/10/16 02:42:54;;;;;;;11.05;6.68;;;;;;;-147.20;100.00;63046.97;31314251;28;20066;-65
2022/10/16 02:57:54;;;;;;;7.72;5.55;;;;;;;-147.20;100.00;63046.97;31313082;28;20050;-66
2022/10/16 03:12:55;;;;;;;10.77;6.18;;;;;;;-147.20;100.00;63046.97;31311961;28;20115;-66
2022/10/16 03:27:55;;;;;;;9.50;6.05;;;;;;;-147.20;100.00;63046.97;31309919;28;20030;-65
2022/10/16 03:42:57;;;;;;;9.60;6.60;;;;;;;-147.20;100.00;63046.97;31307523;28;28458;-65
2022/10/16 03:57:57;;;;;;;10.32;7.38;;;;;;;-147.20;100.00;63046.97;31306033;28;20068;-66
2022/10/16 04:12:57;;;;;;;10.15;7.18;;;;;;;-147.20;100.00;63046.97;31305573;28;20026;-68
2022/10/16 04:27:58;;;;;;;8.02;5.47;;;;;;;-147.20;100.00;63046.97;31303354;28;20037;-65
2022/10/16 04:42:59;;;;;;;7.25;5.47;;;;;;;-147.20;100.00;63046.97;31302750;28;20176;-66
2022/10/16 04:57:59;;;;;;;8.43;5.68;;;;;;;-147.20;100.00;63046.97;31302603;28;20121;-66
2022/10/16 05:12:59;;;;;;;9.98;6.22;;;;;;;-147.20;100.00;63046.97;31315880;28;20062;-65
2022/10/16 05:28:00;;;;;;;8.38;5.15;;;;;;;-147.20;100.00;63046.97;31318541;28;20034;-66
2022/10/16 05:43:00;;;;;;;7.47;5.60;;;;;;;-147.20;100.00;63046.97;31317144;28;20034;-69
2022/10/16 05:58:01;;;;;;;10.07;6.15;;;;;;;-147.20;100.00;63046.97;31315585;28;20050;-65
2022/10/16 06:13:01;;;;;;;9.23;5.60;;;;;;;-147.20;100.00;63046.97;31313583;28;20068;-65
2022/10/16 06:28:01;;;;;;;8.63;6.28;;;;;;;-147.20;100.00;63046.97;31311547;28;22713;-66
2022/10/16 06:43:02;;;;;;;10.30;6.50;;;;;;;-147.20;100.00;63046.97;31311669;28;20034;-66
2022/10/16 06:58:02;;;;;;;8.77;5.13;;;;;;;-147.20;100.00;63046.97;31310902;28;20542;-66
2022/10/16 07:13:02;;;;;;;5.82;3.83;;;;;;;-147.20;100.00;63046.97;31310497;28;20033;-65
2022/10/16 07:28:03;;;;;;;4.57;2.90;;;;;;;-147.20;100.00;63046.97;31308410;28;20486;-67
2022/10/16 07:43:05;;;;;;;6.10;3.70;;;;;;;-147.20;100.00;63046.97;31307151;28;20040;-66
2022/10/16 07:58:06;;;;;;;7.07;3.00;;;;;;;-147.20;100.00;63046.97;31304478;28;20163;-64
2022/10/16 08:13:06;;;;;;;4.28;2.65;;;;;;;-147.20;100.00;63046.97;31303119;28;20037;-62
2022/10/16 08:28:09;;;;;;;4.13;2.80;;;;;;;-147.20;100.00;63046.97;31302644;28;20398;-63
2022/10/16 08:43:21;;;;;;;4.05;2.80;;;;;;;-147.20;100.00;63046.97;31309292;28;20368;-65
2022/10/16 08:58:30;;;;;;;3.80;2.35;;;;;;;-147.20;100.00;63046.97;31354841;28;20056;-67
2022/10/16 09:14:06;;;;;;;4.32;3.05;;;;;;;-147.20;100.00;63046.97;31373485;28;20052;-67
2022/10/16 09:29:12;;;;;;;5.18;2.15;;;;;;;-147.20;100.00;63046.97;31313123;28;20041;-68
2022/10/16 09:44:19;;;;;;;4.53;2.17;;;;;;;-147.20;100.00;63046.97;31313740;28;20034;-67
2022/10/16 09:59:26;;;;;;;3.13;2.00;;;;;;;-147.20;100.00;63046.97;31310929;28;20038;-67
2022/10/16 10:14:38;;;;;;;2.67;1.67;;;;;;;-147.20;100.00;63046.97;31375351;28;20520;-62
2022/10/16 10:29:53;;;;;;;3.50;1.20;;;;;;;-147.20;100.00;63046.97;31428151;28;20079;-67
2022/10/16 10:45:08;;;;;;;2.37;1.20;;;;;;;-147.20;100.00;63046.97;31384342;28;20339;-65
2022/10/16 11:00:21;;;;;;;1.43;1.03;;;;;;;-147.20;100.00;63046.97;31365069;28;20041;-66
2022/10/16 11:15:29;;;;;;;2.43;1.10;;;;;;;-147.20;100.00;63046.97;31360742;28;20301;-66
2022/10/16 11:30:33;;;;;;;1.37;1.10;;;;;;;-147.20;100.00;63046.97;31330728;28;20293;-66
2022/10/16 11:45:43;;;;;;;3.30;2.20;;;;;;;-147.20;100.00;63046.97;31319882;28;20260;-67
2022/10/16 12:01:05;;;;;;;4.43;3.00;;;;;;;-147.20;100.00;63046.97;31305406;28;20344;-67
2022/10/16 12:16:11;;;;;;;3.85;2.88;;;;;;;-147.20;100.00;63046.97;31300903;28;20257;-66
2022/10/16 12:31:12;;;;;;;5.30;2.50;;;;;;;-147.20;100.00;63046.97;31302105;28;20552;-66
2022/10/16 12:46:12;;;;;;;;;;;;;;;-147.20;100.00;63046.97;31324076;28;20061;-65
2022/10/16 13:01:46;;;;;;;9.55;5.70;;;;;;;-147.20;100.00;63046.97;31397405;28;19928;-62
2022/10/16 13:16:55;;;;;;;6.78;4.85;;;;;;;-147.20;100.00;63046.97;31315323;28;20038;-62
2022/10/16 13:31:55;;;;;;;7.13;4.45;;;;;;;-147.20;100.00;63046.97;31284318;28;20113;-62
2022/10/16 13:47:03;;;;;;;5.67;3.97;;;;;;;-147.20;100.00;63046.97;31384616;28;20493;-64
2022/10/16 14:02:25;;;;;;;7.28;3.55;;;;;;;-147.20;100.00;63046.97;31310417;28;21250;-64
2022/10/16 14:17:31;;;;;;;5.30;3.83;;;;;;;-147.20;100.00;63046.97;31301340;28;20065;-65
2022/10/16 14:32:31;;;;;;;3.87;2.70;;;;;;;-147.20;100.00;63046.97;31310983;28;20064;-64
2022/10/16 14:47:32;;;;;;;5.07;2.42;;;;;;;-147.20;100.00;63046.97;31309511;28;20038;-64
2022/10/16 15:02:34;;;;;;;6.05;4.40;;;;;;;-147.20;100.00;63046.97;31309129;28;30825;-64
2022/10/16 15:17:34;;;;;;;5.68;4.32;;;;;;;-147.20;100.00;63046.97;31308659;28;20034;-65
2022/10/16 15:32:34;;;;;;;10.52;5.85;;;;;;;-147.20;100.00;63046.97;31305961;28;29332;-66
2022/10/16 15:47:35;;;;;;;7.80;5.83;;;;;;;-147.20;100.00;63046.97;31252901;28;27657;-65
2022/10/16 16:02:35;;;;;;;18.65;9.63;;;;;;;-147.20;100.00;63046.97;31295336;28;20089;-65
2022/10/16 16:17:36;;;;;;;39.22;23.48;;;;;;;-147.20;100.00;63046.97;31293042;28;20029;-64
2022/10/16 16:32:37;;;;;;;21.33;13.48;;;;;;;-147.20;100.00;63046.97;31291076;28;20044;-65
2022/10/16 16:47:38;;;;;;;19.08;12.43;;;;;;;-147.20;100.00;63046.97;31289001;28;20048;-66
2022/10/16 17:02:42;;;;;;;23.43;12.47;;;;;;;-147.20;100.00;63046.97;31307012;28;20049;-66
2022/10/16 17:17:43;;;;;;;15.82;10.07;;;;;;;-147.20;100.00;63046.97;31428341;28;20038;-66
2022/10/16 17:32:43;;;;;;;15.95;10.60;;;;;;;-147.20;100.00;63046.97;31309529;28;20037;-67
2022/10/16 17:47:43;;;;;;;14.63;10.63;;;;;;;-147.20;100.00;63046.97;31308137;28;20045;-68
2022/10/16 18:02:44;;;;;;;16.45;11.15;;;;;;;-147.20;100.00;63046.97;31344426;28;20054;-68
2022/10/16 18:17:44;;;;;;;17.50;11.13;;;;;;;-147.20;100.00;63046.97;31366782;28;21231;-69
2022/10/16 18:32:45;;;;;;;17.90;12.95;;;;;;;-147.20;100.00;63046.97;31353758;28;20076;-68
2022/10/16 18:47:46;;;;;;;19.92;14.23;;;;;;;-147.20;100.00;63046.97;31295255;28;20038;-68
2022/10/16 19:02:46;;;;;;;19.55;13.95;;;;;;;-147.20;100.00;63046.97;31242999;28;20093;-69
2022/10/16 19:17:46;;;;;;;27.85;18.77;;;;;;;-147.20;100.00;63046.97;31227881;28;20034;-69
2022/10/16 19:32:48;;;;;;;18.50;13.88;;;;;;;-147.20;100.00;63046.97;31258816;28;20049;-68
2022/10/16 19:47:48;;;;;;;18.97;13.97;;;;;;;-147.20;100.00;63046.97;31352296;28;20052;-68
2022/10/16 20:02:49;;;;;;;19.90;15.32;;;;;;;-147.20;100.00;63046.97;31345154;28;20058;-67
2022/10/16 20:17:49;;;;;;;21.77;15.20;;;;;;;-147.20;100.00;63046.97;31345458;28;20034;-67
2022/10/16 20:32:49;;;;;;;21.20;16.30;;;;;;;-147.20;100.00;63046.97;31328114;28;20054;-67
2022/10/16 20:47:50;;;;;;;23.80;16.48;;;;;;;-147.20;100.00;63046.97;31358157;28;20042;-68
2022/10/16 21:02:51;;;;;;;22.92;16.65;;;;;;;-147.20;100.00;63046.97;31309479;28;21718;-68
2022/10/16 21:17:52;;;;;;;22.20;17.17;;;;;;;-147.20;100.00;63046.97;31299554;28;20113;-68
2022/10/16 21:32:52;;;;;;;26.85;18.15;;;;;;;-147.20;100.00;63046.97;31299574;28;20060;-68
2022/10/16 21:47:52;;;;;;;26.77;18.05;;;;;;;-147.20;100.00;63046.97;31303929;28;25156;-67
2022/10/16 22:02:53;;;;;;;27.30;17.38;;;;;;;-147.20;100.00;63046.97;31318931;28;20050;-67
2022/10/16 22:17:53;;;;;;;23.58;16.23;;;;;;;-147.20;100.00;63046.97;31318014;28;20061;-67
2022/10/16 22:32:53;;;;;;;31.58;20.15;;;;;;;-147.20;100.00;63046.97;31315694;28;22956;-68
2022/10/16 22:47:53;;;;;;;30.17;20.15;;;;;;;-147.20;100.00;63046.97;31314850;28;20026;-68
2022/10/16 23:02:54;;;;;;;30.95;20.65;;;;;;;-147.20;100.00;63046.97;31311548;28;25636;-67
2022/10/16 23:17:54;;;;;;;33.58;21.30;;;;;;;-147.20;100.00;63046.97;31312134;28;20030;-68
2022/10/16 23:32:55;;;;;;;29.48;18.63;;;;;;;-147.20;100.00;63046.97;31310332;28;20041;-68
2022/10/16 23:47:55;;;;;;;33.13;23.42;;;;;;;-147.20;100.00;63046.97;31308918;28;20088;-67
